Time;durP1;ratioP1;P1;durP2;ratioP2;P2;SDS_P1;SDS_P2;PMS_P1;PMS_P2;Temp;Humidity;BMP_temperature;BMP_pressure;BME280_temperature;BME280_humidity;BME280_pressure;Samples;Min_cycle;Max_cycle;Signal;HPM_P1;HPM_P2
2022/04/19 00:00:37;;;;;;;;;;;10.40;39.40;;;;;;4958242;29;19921;-87
2022/04/19 00:03:02;;;;;;;;;;;10.30;39.50;;;;;;4940027;29;20445;-86
2022/04/19 00:05:29;;;;;;;;;;;10.30;39.60;;;;;;4956975;29;19915;-87
2022/04/19 00:07:54;;;;;;;;;;;10.20;39.70;;;;;;4938251;29;19926;-87
2022/04/19 00:10:20;;;;;;;;;;;10.20;39.80;;;;;;4956254;29;19914;-87
2022/04/19 00:12:47;;;;;;;;;;;10.20;39.90;;;;;;4956088;29;19922;-87
2022/04/19 00:15:15;;;;;;;;;;;10.10;40.00;;;;;;4939499;29;19918;-87
2022/04/19 00:17:41;;;;;;;;;;;10.10;40.00;;;;;;4938956;29;20408;-88
2022/04/19 00:20:06;;;;;;;;;;;10.10;40.00;;;;;;4940188;29;19925;-87
2022/04/19 00:22:32;;;;;;;;;;;10.10;40.10;;;;;;4955811;29;19910;-88
2022/04/19 00:24:57;;;;;;;;;;;10.00;40.20;;;;;;4940342;29;19915;-87
2022/04/19 00:27:23;;;;;;;;;;;10.00;40.40;;;;;;4939965;29;19922;-87
2022/04/19 00:29:49;;;;;;;;;;;10.00;40.50;;;;;;4956780;29;19997;-88
2022/04/19 00:32:15;;;;;;;;;;;10.00;40.60;;;;;;4956763;29;19921;-87
2022/04/19 00:34:40;;;;;;;;;;;9.90;40.70;;;;;;4939726;29;19923;-88
2022/04/19 00:37:06;;;;;;;;;;;9.90;40.90;;;;;;4939773;29;19950;-88
2022/04/19 00:39:32;;;;;;;;;;;9.80;40.90;;;;;;4939748;29;19914;-88
2022/04/19 00:41:57;;;;;;;;;;;9.80;40.90;;;;;;4939362;29;19914;-87
2022/04/19 00:44:23;;;;;;;;;;;9.80;40.90;;;;;;4956738;29;20299;-88
2022/04/19 00:46:49;;;;;;;;;;;9.70;40.90;;;;;;4940045;29;19937;-89
2022/04/19 00:49:17;;;;;;;;;;;9.60;41.00;;;;;;4959297;29;20435;-88
2022/04/19 00:51:43;;;;;;;;;;;9.60;41.10;;;;;;4959666;29;19961;-88
2022/04/19 00:54:09;;;;;;;;;;;9.60;41.10;;;;;;4942587;29;20371;-88
2022/04/19 00:56:34;;;;;;;;;;;9.50;41.10;;;;;;4942634;29;19926;-88
2022/04/19 00:59:00;;;;;;;;;;;9.50;41.10;;;;;;4959708;29;19925;-88
2022/04/19 01:01:25;;;;;;;;;;;9.40;41.10;;;;;;4960345;29;19970;-88
2022/04/19 01:03:51;;;;;;;;;;;9.40;41.30;;;;;;4942194;29;19919;-88
2022/04/19 01:06:17;;;;;;;;;;;9.30;41.50;;;;;;4942222;29;19910;-88
2022/04/19 01:08:44;;;;;;;;;;;9.30;41.50;;;;;;4942836;29;19958;-88
2022/04/19 01:13:53;;;;;;;;;;;9.20;41.60;;;;;;4959587;29;19933;-88
2022/04/19 01:16:19;;;;;;;;;;;9.20;41.60;;;;;;4941635;29;19915;-88
2022/04/19 01:18:45;;;;;;;;;;;9.10;41.70;;;;;;4941980;29;19923;-88
2022/04/19 01:21:10;;;;;;;;;;;9.20;41.80;;;;;;4958497;29;19910;-88
2022/04/19 01:23:38;;;;;;;;;;;9.10;41.90;;;;;;4958613;29;20367;-88
2022/04/19 01:26:06;;;;;;;;;;;9.10;41.90;;;;;;4942076;28;19921;-88
2022/04/19 01:28:32;;;;;;;;;;;9.10;42.00;;;;;;4942165;29;19968;-88
2022/04/19 01:30:58;;;;;;;;;;;9.10;42.40;;;;;;4941559;29;19911;-88
2022/04/19 01:33:23;;;;;;;;;;;9.10;42.50;;;;;;4958245;29;20351;-87
2022/04/19 01:35:49;;;;;;;;;;;9.00;42.50;;;;;;4941401;29;19925;-87
2022/04/19 01:38:14;;;;;;;;;;;9.00;42.40;;;;;;4958907;29;19960;-87
2022/04/19 01:40:40;;;;;;;;;;;9.00;42.30;;;;;;4941477;29;19914;-88
2022/04/19 01:43:06;;;;;;;;;;;9.00;42.20;;;;;;4941356;29;19914;-87
2022/04/19 01:45:32;;;;;;;;;;;9.00;42.20;;;;;;4941205;29;19960;-88
2022/04/19 01:47:58;;;;;;;;;;;8.90;42.40;;;;;;4958637;29;19930;-88
2022/04/19 01:50:27;;;;;;;;;;;8.90;42.60;;;;;;4958701;29;19982;-87
2022/04/19 01:52:54;;;;;;;;;;;8.90;42.80;;;;;;4958688;29;20345;-88
2022/04/19 01:55:20;;;;;;;;;;;8.90;43.00;;;;;;4958491;29;20343;-88
2022/04/19 01:57:47;;;;;;;;;;;8.80;43.10;;;;;;4956420;28;19923;-88
2022/04/19 02:00:13;;;;;;;;;;;8.80;43.10;;;;;;4940955;29;19926;-88
2022/04/19 02:02:39;;;;;;;;;;;8.80;43.10;;;;;;4941326;29;19914;-87
2022/04/19 02:05:05;;;;;;;;;;;8.80;43.10;;;;;;4941344;29;20027;-88
2022/04/19 02:07:33;;;;;;;;;;;8.70;43.20;;;;;;4940845;29;19914;-88
2022/04/19 02:09:59;;;;;;;;;;;8.70;43.20;;;;;;4958156;29;19918;-87
2022/04/19 02:12:25;;;;;;;;;;;8.70;43.10;;;;;;4958210;29;19965;-87
2022/04/19 02:14:50;;;;;;;;;;;8.70;43.10;;;;;;4939868;29;19949;-88
2022/04/19 02:17:18;;;;;;;;;;;8.60;43.20;;;;;;4940477;29;20001;-88
2022/04/19 02:19:43;;;;;;;;;;;8.70;43.30;;;;;;4940800;29;20118;-87
2022/04/19 02:22:09;;;;;;;;;;;8.70;43.50;;;;;;4940958;29;19958;-88
2022/04/19 02:24:35;;;;;;;;;;;8.70;43.90;;;;;;4940652;29;20509;-87
2022/04/19 02:27:01;;;;;;;;;;;8.70;44.10;;;;;;4940574;29;19978;-87
2022/04/19 02:29:26;;;;;;;;;;;8.70;44.10;;;;;;4957355;29;19915;-88
2022/04/19 02:31:52;;;;;;;;;;;8.70;44.00;;;;;;4940474;29;20487;-88
2022/04/19 02:34:18;;;;;;;;;;;8.70;43.90;;;;;;4940838;29;19934;-88
2022/04/19 02:36:44;;;;;;;;;;;8.70;43.80;;;;;;4940432;29;19930;-87
2022/04/19 02:39:10;;;;;;;;;;;8.70;43.80;;;;;;4957891;29;20070;-87
2022/04/19 02:41:36;;;;;;;;;;;8.70;43.80;;;;;;4957966;29;20564;-87
2022/04/19 02:44:02;;;;;;;;;;;8.70;43.70;;;;;;4940814;29;19915;-88
2022/04/19 02:46:29;;;;;;;;;;;8.70;43.70;;;;;;4956965;29;19989;-87
2022/04/19 02:48:56;;;;;;;;;;;8.70;43.60;;;;;;4940422;29;19918;-88
2022/04/19 02:51:21;;;;;;;;;;;8.70;43.60;;;;;;4941063;29;19961;-88
2022/04/19 02:53:47;;;;;;;;;;;8.70;43.60;;;;;;4940219;29;19958;-88
2022/04/19 02:56:12;;;;;;;;;;;8.70;43.70;;;;;;4939611;29;20358;-88
2022/04/19 02:58:38;;;;;;;;;;;8.70;43.90;;;;;;4939918;29;20240;-88
2022/04/19 03:01:04;;;;;;;;;;;8.70;43.90;;;;;;4940080;29;19918;-88
2022/04/19 03:03:29;;;;;;;;;;;8.70;43.90;;;;;;4958772;28;19925;-88
2022/04/19 03:05:56;;;;;;;;;;;8.70;43.80;;;;;;4976851;28;20009;-88
2022/04/19 03:08:22;;;;;;;;;;;8.70;43.90;;;;;;4959889;28;19914;-87
2022/04/19 03:10:49;;;;;;;;;;;8.70;43.90;;;;;;4976051;28;19921;-88
2022/04/19 03:13:16;;;;;;;;;;;8.70;43.90;;;;;;4976249;28;19918;-88
2022/04/19 03:15:41;;;;;;;;;;;8.70;43.90;;;;;;4959754;28;19928;-88
2022/04/19 03:18:07;;;;;;;;;;;8.70;44.00;;;;;;4959385;28;20008;-87
2022/04/19 03:20:32;;;;;;;;;;;8.70;43.90;;;;;;4977271;28;19918;-88
2022/04/19 03:28:26;;;;;;;;;;;8.60;44.20;;;;;;4976332;28;19921;-87
2022/04/19 03:30:52;;;;;;;;;;;8.60;44.30;;;;;;4958481;28;20250;-88
2022/04/19 03:33:17;;;;;;;;;;;8.60;44.40;;;;;;4958309;28;19922;-87
2022/04/19 03:35:43;;;;;;;;;;;8.60;44.40;;;;;;4976586;28;19925;-87
2022/04/19 03:38:09;;;;;;;;;;;8.60;44.50;;;;;;4975818;28;19921;-88
2022/04/19 03:40:35;;;;;;;;;;;8.60;44.50;;;;;;4958094;28;20449;-88
2022/04/19 03:43:00;;;;;;;;;;;8.60;44.60;;;;;;4958583;28;19914;-88
2022/04/19 03:45:26;;;;;;;;;;;8.60;44.60;;;;;;4975080;28;19964;-87
2022/04/19 03:47:52;;;;;;;;;;;8.50;44.60;;;;;;4975546;28;19932;-88
2022/04/19 03:50:18;;;;;;;;;;;8.50;44.60;;;;;;4975489;28;20371;-88
2022/04/19 03:52:44;;;;;;;;;;;8.50;44.70;;;;;;4958717;28;20005;-89
2022/04/19 03:55:10;;;;;;;;;;;8.50;44.70;;;;;;4958656;28;19987;-88
2022/04/19 03:57:38;;;;;;;;;;;8.50;44.70;;;;;;4958935;28;19936;-88
2022/04/19 04:00:03;;;;;;;;;;;8.40;44.60;;;;;;4958939;28;20028;-87
2022/04/19 04:02:30;;;;;;;;;;;8.30;44.60;;;;;;4958593;28;19946;-87
2022/04/19 04:04:55;;;;;;;;;;;8.30;44.70;;;;;;4974974;28;20388;-87
2022/04/19 04:07:21;;;;;;;;;;;8.30;44.70;;;;;;4975215;28;19910;-87
2022/04/19 04:09:47;;;;;;;;;;;8.20;44.80;;;;;;4975838;28;20013;-87
2022/04/19 04:12:12;;;;;;;;;;;8.20;44.90;;;;;;4976516;28;20012;-87
2022/04/19 04:14:38;;;;;;;;;;;8.20;45.00;;;;;;4974894;28;19957;-88
2022/04/19 04:17:04;;;;;;;;;;;8.20;45.00;;;;;;4959123;28;19914;-87
2022/04/19 04:19:29;;;;;;;;;;;8.10;45.00;;;;;;4974458;28;19914;-89
2022/04/19 04:21:55;;;;;;;;;;;8.10;45.00;;;;;;4975452;28;19921;-89
2022/04/19 04:24:20;;;;;;;;;;;8.10;45.00;;;;;;4978755;28;20000;-87
2022/04/19 04:26:46;;;;;;;;;;;8.10;45.30;;;;;;4978348;28;19918;-87
2022/04/19 04:29:11;;;;;;;;;;;8.10;45.30;;;;;;4979312;28;19918;-89
2022/04/19 04:31:38;;;;;;;;;;;8.10;45.30;;;;;;4979061;28;20342;-89
2022/04/19 04:34:04;;;;;;;;;;;8.10;45.30;;;;;;4979022;28;19918;-88
2022/04/19 04:36:29;;;;;;;;;;;8.10;45.30;;;;;;4979269;28;20072;-88
2022/04/19 04:38:55;;;;;;;;;;;8.10;45.50;;;;;;4979241;28;19937;-88
2022/04/19 04:41:20;;;;;;;;;;;8.10;45.50;;;;;;4977215;28;20385;-87
2022/04/19 04:43:45;;;;;;;;;;;8.20;45.60;;;;;;4977918;28;19914;-88
2022/04/19 04:51:39;;;;;;;;;;;8.70;47.30;;;;;;4979931;28;19973;-88
2022/04/19 04:54:04;;;;;;;;;;;9.10;48.10;;;;;;4977742;28;19918;-88
2022/04/19 04:56:30;;;;;;;;;;;9.40;48.50;;;;;;4979180;28;19942;-88
2022/04/19 04:58:56;;;;;;;;;;;9.80;48.80;;;;;;4979308;28;19910;-88
2022/04/19 05:01:22;;;;;;;;;;;10.20;48.90;;;;;;4962139;28;19922;-88
2022/04/19 05:03:47;;;;;;;;;;;10.60;49.10;;;;;;4961581;28;19910;-88
2022/04/19 05:06:13;;;;;;;;;;;11.00;49.20;;;;;;4961821;28;19981;-88
2022/04/19 05:08:38;;;;;;;;;;;11.40;49.30;;;;;;4979399;28;19918;-89
2022/04/19 05:11:04;;;;;;;;;;;11.90;49.20;;;;;;4961412;28;19919;-89
2022/04/19 05:13:29;;;;;;;;;;;12.30;48.80;;;;;;4961368;28;19929;-87
2022/04/19 05:15:55;;;;;;;;;;;12.70;48.10;;;;;;4961706;28;20000;-88
2022/04/19 05:18:20;;;;;;;;;;;13.00;47.50;;;;;;4962053;28;20366;-88
2022/04/19 05:20:46;;;;;;;;;;;13.20;47.00;;;;;;4961572;28;19918;-88
2022/04/19 05:23:11;;;;;;;;;;;13.50;46.70;;;;;;4978397;28;20009;-88
2022/04/19 05:25:36;;;;;;;;;;;13.70;46.50;;;;;;4963059;28;19980;-88
2022/04/19 05:28:02;;;;;;;;;;;14.00;46.20;;;;;;4961857;28;19918;-88
2022/04/19 05:30:28;;;;;;;;;;;14.20;46.00;;;;;;4960816;28;20338;-88
2022/04/19 05:32:53;;;;;;;;;;;14.40;45.60;;;;;;4978986;28;20354;-87
2022/04/19 05:35:19;;;;;;;;;;;14.60;45.40;;;;;;4978460;28;20398;-89
2022/04/19 05:37:45;;;;;;;;;;;14.80;45.40;;;;;;4978543;28;19915;-88
2022/04/19 05:40:11;;;;;;;;;;;15.10;45.40;;;;;;4961340;28;20329;-88
2022/04/19 05:42:36;;;;;;;;;;;15.40;45.10;;;;;;4960985;28;19921;-88
2022/04/19 05:45:02;;;;;;;;;;;15.70;44.90;;;;;;4978479;28;19898;-88
2022/04/19 05:47:27;;;;;;;;;;;16.00;44.70;;;;;;4960130;28;19914;-88
2022/04/19 05:49:53;;;;;;;;;;;16.30;44.30;;;;;;4977253;28;19915;-88
2022/04/19 05:52:18;;;;;;;;;;;16.70;44.20;;;;;;4976829;28;19914;-90
2022/04/19 05:54:44;;;;;;;;;;;17.10;43.90;;;;;;4960859;28;20025;-88
2022/04/19 05:57:10;;;;;;;;;;;17.50;43.30;;;;;;4978367;28;19923;-88
2022/04/19 05:59:38;;;;;;;;;;;17.90;42.60;;;;;;4961486;28;20277;-89
2022/04/19 06:04:54;;;;;;;;;;;18.70;42.00;;;;;;4977908;28;19921;-89
2022/04/19 06:07:23;;;;;;;;;;;19.20;41.70;;;;;;4977396;28;20274;-89
2022/04/19 06:09:49;;;;;;;;;;;19.70;40.60;;;;;;4977610;28;19978;-89
2022/04/19 06:12:14;;;;;;;;;;;20.10;40.70;;;;;;4960259;28;20319;-88
2022/04/19 06:14:40;;;;;;;;;;;20.50;39.90;;;;;;4960129;28;19929;-89
2022/04/19 06:17:05;;;;;;;;;;;21.00;39.60;;;;;;4961250;28;19918;-88
2022/04/19 06:19:31;;;;;;;;;;;21.50;38.80;;;;;;4978225;28;19910;-88
2022/04/19 06:21:56;;;;;;;;;;;22.00;38.20;;;;;;4978508;28;20439;-89
2022/04/19 06:24:22;;;;;;;;;;;22.50;37.60;;;;;;4961132;28;19918;-89
2022/04/19 06:26:48;;;;;;;;;;;23.00;36.90;;;;;;4963681;28;19941;-89
2022/04/19 06:29:14;;;;;;;;;;;23.60;35.60;;;;;;4961306;28;19921;-89
2022/04/19 06:31:40;;;;;;;;;;;24.10;34.80;;;;;;4978295;28;20008;-88
2022/04/19 06:34:07;;;;;;;;;;;24.60;34.00;;;;;;4978726;28;20371;-89
2022/04/19 06:36:32;;;;;;;;;;;25.10;32.90;;;;;;4960586;28;19918;-89
2022/04/19 06:38:57;;;;;;;;;;;25.50;32.50;;;;;;4977862;28;20401;-89
2022/04/19 06:41:23;;;;;;;;;;;25.90;31.70;;;;;;4959828;28;19918;-89
2022/04/19 06:43:48;;;;;;;;;;;26.30;30.80;;;;;;4977260;28;19911;-88
2022/04/19 06:46:15;;;;;;;;;;;26.70;29.10;;;;;;4976703;28;19918;-89
2022/04/19 06:48:41;;;;;;;;;;;26.80;27.80;;;;;;4977729;28;19965;-89
2022/04/19 06:51:07;;;;;;;;;;;26.70;27.10;;;;;;4977899;28;20346;-89
2022/04/19 06:53:32;;;;;;;;;;;26.80;26.80;;;;;;4977178;28;19914;-89
2022/04/19 06:55:57;;;;;;;;;;;26.90;26.80;;;;;;4976946;28;19936;-89
2022/04/19 06:58:23;;;;;;;;;;;27.10;26.00;;;;;;4958711;28;19914;-89
2022/04/19 07:00:48;;;;;;;;;;;27.30;26.10;;;;;;4961056;28;19922;-89
2022/04/19 07:03:14;;;;;;;;;;;27.50;25.50;;;;;;4957651;28;19918;-89
2022/04/19 07:05:40;;;;;;;;;;;27.80;25.10;;;;;;4975251;28;19920;-89
2022/04/19 07:08:07;;;;;;;;;;;27.90;24.60;;;;;;4974515;28;19953;-88
2022/04/19 07:10:33;;;;;;;;;;;28.00;24.00;;;;;;4955932;29;19914;-88
2022/04/19 07:12:59;;;;;;;;;;;28.20;23.70;;;;;;4954402;29;19949;-90
2022/04/19 07:15:25;;;;;;;;;;;28.30;23.70;;;;;;4954950;29;19910;-89
2022/04/19 07:17:50;;;;;;;;;;;28.60;23.50;;;;;;4955640;29;20009;-89
2022/04/19 07:28:33;;;;;;;;;;;29.20;22.70;;;;;;4955951;29;19942;-89
2022/04/19 07:30:59;;;;;;;;;;;29.30;21.80;;;;;;4941362;28;20251;-89
2022/04/19 07:33:24;;;;;;;;;;;29.30;21.80;;;;;;4974715;28;19929;-88
2022/04/19 07:35:51;;;;;;;;;;;29.40;22.00;;;;;;4975080;28;19929;-90
2022/04/19 07:38:16;;;;;;;;;;;29.70;22.10;;;;;;4975216;28;19974;-89
2022/04/19 07:40:45;;;;;;;;;;;30.00;22.00;;;;;;4956683;28;19968;-90
2022/04/19 07:43:10;;;;;;;;;;;30.40;21.60;;;;;;4974730;28;19919;-88
2022/04/19 07:45:36;;;;;;;;;;;30.70;21.40;;;;;;4974409;28;20549;-89
2022/04/19 07:48:04;;;;;;;;;;;31.00;21.20;;;;;;4974558;28;19918;-89
2022/04/19 07:50:30;;;;;;;;;;;31.20;20.90;;;;;;4973436;28;19922;-89
2022/04/19 07:52:55;;;;;;;;;;;31.40;20.40;;;;;;4967074;28;19918;-89
2022/04/19 07:55:21;;;;;;;;;;;31.50;20.10;;;;;;4937960;29;20437;-88
2022/04/19 07:57:46;;;;;;;;;;;31.80;20.00;;;;;;4938207;29;19973;-88
2022/04/19 08:00:13;;;;;;;;;;;32.10;20.00;;;;;;4955145;28;19918;-90
2022/04/19 08:02:39;;;;;;;;;;;32.30;19.90;;;;;;4945925;28;19918;-89
2022/04/19 08:05:04;;;;;;;;;;;32.40;19.10;;;;;;4973194;28;20281;-90
2022/04/19 08:07:30;;;;;;;;;;;32.30;18.10;;;;;;4972059;28;19953;-89
2022/04/19 08:09:58;;;;;;;;;;;32.20;17.40;;;;;;4971913;28;19922;-89
2022/04/19 08:12:24;;;;;;;;;;;32.00;17.60;;;;;;4955181;28;20274;-89
2022/04/19 08:14:49;;;;;;;;;;;31.70;17.80;;;;;;4973150;28;19926;-90
2022/04/19 08:17:16;;;;;;;;;;;31.50;18.10;;;;;;4972103;28;20424;-89
2022/04/19 08:19:41;;;;;;;;;;;31.30;18.10;;;;;;4974186;28;19964;-89
2022/04/19 08:22:08;;;;;;;;;;;31.20;18.00;;;;;;4975000;28;20282;-88
2022/04/19 08:24:36;;;;;;;;;;;31.10;18.10;;;;;;4974426;28;20410;-89
2022/04/19 08:27:02;;;;;;;;;;;31.00;18.10;;;;;;4956674;28;20297;-90
2022/04/19 08:29:27;;;;;;;;;;;31.00;18.30;;;;;;4971704;28;19914;-89
2022/04/19 08:31:52;;;;;;;;;;;31.00;17.90;;;;;;4972277;28;19918;-88
2022/04/19 08:34:18;;;;;;;;;;;31.10;17.90;;;;;;4974131;28;20035;-88
2022/04/19 08:36:43;;;;;;;;;;;31.10;17.90;;;;;;4973845;28;19989;-90
2022/04/19 08:39:09;;;;;;;;;;;31.20;17.70;;;;;;4972922;28;19920;-89
2022/04/19 08:41:36;;;;;;;;;;;31.00;17.60;;;;;;4956401;28;19918;-89
2022/04/19 08:44:01;;;;;;;;;;;30.80;17.60;;;;;;4973711;28;19918;-88
2022/04/19 08:46:27;;;;;;;;;;;30.60;17.90;;;;;;4973275;28;19969;-87
2022/04/19 08:48:56;;;;;;;;;;;30.60;18.10;;;;;;4973894;28;19954;-88
2022/04/19 08:51:21;;;;;;;;;;;30.50;17.50;;;;;;4973516;28;20282;-87
2022/04/19 08:59:15;;;;;;;;;;;30.00;17.60;;;;;;4954596;29;19965;-89
2022/04/19 09:01:41;;;;;;;;;;;29.80;18.00;;;;;;4957285;28;19926;-89
2022/04/19 09:04:07;;;;;;;;;;;29.80;18.00;;;;;;4955182;28;19915;-89
2022/04/19 09:06:51;;;;;;;;;;;29.80;17.90;;;;;;4973596;28;19922;-89
2022/04/19 09:09:19;;;;;;;;;;;29.80;17.40;;;;;;4975512;28;19914;-88
2022/04/19 09:11:45;;;;;;;;;;;29.70;17.70;;;;;;4976479;28;19933;-89
2022/04/19 09:14:10;;;;;;;;;;;29.80;18.20;;;;;;4976768;28;19918;-89
2022/04/19 09:16:36;;;;;;;;;;;30.00;18.10;;;;;;4959169;28;19944;-89
2022/04/19 09:19:01;;;;;;;;;;;30.20;18.20;;;;;;4958749;28;19930;-88
2022/04/19 09:21:37;;;;;;;;;;;30.20;17.80;;;;;;4976730;28;19918;-88
2022/04/19 09:24:15;;;;;;;;;;;30.30;17.90;;;;;;4958667;28;19938;-87
2022/04/19 09:26:44;;;;;;;;;;;30.30;17.70;;;;;;4975869;28;19925;-88
2022/04/19 09:29:21;;;;;;;;;;;30.20;18.00;;;;;;4974462;28;20350;-89
2022/04/19 09:31:47;;;;;;;;;;;30.20;17.50;;;;;;4958562;28;19933;-88
2022/04/19 09:34:42;;;;;;;;;;;29.90;17.30;;;;;;4976145;28;20001;-89
2022/04/19 09:37:11;;;;;;;;;;;29.80;17.30;;;;;;4974797;28;19922;-89
2022/04/19 09:39:38;;;;;;;;;;;29.70;17.70;;;;;;4959286;28;20028;-90
2022/04/19 09:42:04;;;;;;;;;;;29.50;17.60;;;;;;4959305;28;19969;-88
2022/04/19 09:44:29;;;;;;;;;;;29.50;17.60;;;;;;4975488;28;19914;-90
2022/04/19 09:47:05;;;;;;;;;;;29.40;17.70;;;;;;4959497;28;19918;-90
2022/04/19 09:49:51;;;;;;;;;;;29.50;18.10;;;;;;4980208;28;19921;-88
2022/04/19 09:52:22;;;;;;;;;;;29.60;18.10;;;;;;4975749;28;19924;-89
2022/04/19 09:55:01;;;;;;;;;;;29.60;18.00;;;;;;4960367;28;19926;-90
2022/04/19 09:57:28;;;;;;;;;;;29.70;18.10;;;;;;4941990;29;19918;-89
2022/04/19 09:59:54;;;;;;;;;;;29.80;17.90;;;;;;4957828;29;19924;-89
2022/04/19 10:10:42;;;;;;;;;;;30.20;17.80;;;;;;4980116;28;19952;-90
2022/04/19 10:13:13;;;;;;;;;;;30.30;17.70;;;;;;4979343;28;20643;-91
2022/04/19 10:15:40;;;;;;;;;;;30.60;17.80;;;;;;4977431;28;19983;-88
2022/04/19 10:18:07;;;;;;;;;;;30.80;17.50;;;;;;4963379;28;19914;-89
2022/04/19 10:20:37;;;;;;;;;;;31.00;17.10;;;;;;4959775;28;19995;-90
2022/04/19 10:23:03;;;;;;;;;;;30.90;16.80;;;;;;4960519;28;19915;-90
2022/04/19 10:25:40;;;;;;;;;;;30.90;16.60;;;;;;4961907;28;19917;-88
2022/04/19 10:28:13;;;;;;;;;;;30.80;16.70;;;;;;4978724;28;20006;-89
2022/04/19 10:30:45;;;;;;;;;;;30.80;16.40;;;;;;4961516;28;19918;-90
2022/04/19 10:33:31;;;;;;;;;;;30.70;15.60;;;;;;4977113;28;19945;-90
2022/04/19 10:36:21;;;;;;;;;;;30.60;15.00;;;;;;4980061;28;19985;-90
2022/04/19 10:39:06;;;;;;;;;;;30.40;14.60;;;;;;4982531;28;19924;-88
2022/04/19 10:41:47;;;;;;;;;;;30.30;14.70;;;;;;4981553;28;19921;-89
2022/04/19 10:44:39;;;;;;;;;;;30.40;14.70;;;;;;4979989;28;19978;-90
2022/04/19 10:47:11;;;;;;;;;;;30.40;14.50;;;;;;4976049;28;20339;-90
2022/04/19 10:50:00;;;;;;;;;;;30.30;14.70;;;;;;4977518;28;19918;-90
2022/04/19 10:52:35;;;;;;;;;;;30.20;14.40;;;;;;4972088;28;19914;-88
2022/04/19 10:55:04;;;;;;;;;;;30.30;14.70;;;;;;4978422;28;19925;-90
2022/04/19 11:00:37;;;;;;;;;;;30.80;14.80;;;;;;4984430;28;19920;-91
2022/04/19 11:03:07;;;;;;;;;;;31.00;14.70;;;;;;4941505;29;19921;-90
2022/04/19 11:05:45;;;;;;;;;;;31.00;14.40;;;;;;4964789;28;19915;-89
2022/04/19 11:08:26;;;;;;;;;;;31.10;14.30;;;;;;4965319;28;20013;-90
2022/04/19 11:11:06;;;;;;;;;;;31.10;13.70;;;;;;4957713;29;19918;-89
2022/04/19 11:13:35;;;;;;;;;;;30.90;13.70;;;;;;4955793;29;19927;-88
2022/04/19 11:16:06;;;;;;;;;;;30.80;13.80;;;;;;4957087;29;19911;-89
2022/04/19 11:18:53;;;;;;;;;;;30.80;13.90;;;;;;4958732;28;19970;-89
2022/04/19 11:21:42;;;;;;;;;;;30.70;14.00;;;;;;4955690;29;20286;-89
2022/04/19 11:24:10;;;;;;;;;;;30.60;14.10;;;;;;4954717;28;20334;-89
2022/04/19 11:26:40;;;;;;;;;;;30.70;13.80;;;;;;4956902;28;19914;-90
2022/04/19 11:29:11;;;;;;;;;;;30.70;13.30;;;;;;4958350;29;19915;-89
2022/04/19 11:31:58;;;;;;;;;;;30.60;13.20;;;;;;4955470;28;19965;-89
2022/04/19 11:34:23;;;;;;;;;;;30.60;13.40;;;;;;4955125;28;19926;-89
2022/04/19 11:36:56;;;;;;;;;;;30.80;13.10;;;;;;4955186;28;19921;-89
2022/04/19 11:47:44;;;;;;;;;;;30.90;13.00;;;;;;4956950;29;19941;-89
2022/04/19 11:50:24;;;;;;;;;;;30.70;12.70;;;;;;4955247;29;19914;-90
2022/04/19 11:52:49;;;;;;;;;;;30.70;12.50;;;;;;4958569;28;19918;-90
2022/04/19 11:55:15;;;;;;;;;;;30.50;12.80;;;;;;4972860;28;19922;-89
2022/04/19 11:57:41;;;;;;;;;;;30.50;13.00;;;;;;4972069;28;19918;-88
2022/04/19 12:00:06;;;;;;;;;;;30.70;12.90;;;;;;4973858;28;19918;-88
2022/04/19 12:02:33;;;;;;;;;;;30.80;12.90;;;;;;4958079;28;19914;-88
2022/04/19 12:05:02;;;;;;;;;;;31.00;12.70;;;;;;4976071;28;19918;-88
2022/04/19 12:07:27;;;;;;;;;;;30.90;12.50;;;;;;4975220;28;19926;-89
2022/04/19 12:09:54;;;;;;;;;;;31.00;12.80;;;;;;4974189;28;20059;-88
2022/04/19 12:12:19;;;;;;;;;;;31.10;12.20;;;;;;4957371;28;19915;-89
2022/04/19 12:14:48;;;;;;;;;;;30.80;12.20;;;;;;4974439;28;19926;-89
2022/04/19 12:17:18;;;;;;;;;;;30.40;12.50;;;;;;4957507;28;19980;-89
2022/04/19 12:19:43;;;;;;;;;;;30.20;12.70;;;;;;4975748;28;19925;-89
2022/04/19 12:22:15;;;;;;;;;;;30.30;13.00;;;;;;4957677;28;20080;-88
2022/04/19 12:24:44;;;;;;;;;;;30.40;13.10;;;;;;4974749;28;19926;-88
2022/04/19 12:27:10;;;;;;;;;;;30.50;12.80;;;;;;4956346;28;20012;-89
2022/04/19 12:29:54;;;;;;;;;;;30.60;12.60;;;;;;4974656;28;20421;-90
2022/04/19 12:32:19;;;;;;;;;;;30.40;12.80;;;;;;4974639;28;20280;-89
2022/04/19 12:34:45;;;;;;;;;;;30.10;12.90;;;;;;4972582;28;19945;-89
2022/04/19 12:37:14;;;;;;;;;;;29.80;12.90;;;;;;4972518;28;20064;-89
2022/04/19 12:39:40;;;;;;;;;;;29.80;13.20;;;;;;4974661;28;19922;-89
2022/04/19 12:42:07;;;;;;;;;;;29.70;13.30;;;;;;4973187;28;19921;-89
2022/04/19 12:44:34;;;;;;;;;;;29.40;13.50;;;;;;4976119;28;19918;-89
2022/04/19 12:47:02;;;;;;;;;;;29.30;13.60;;;;;;4959594;28;19941;-89
2022/04/19 12:49:29;;;;;;;;;;;29.50;13.80;;;;;;4959041;28;19918;-89
2022/04/19 12:51:58;;;;;;;;;;;29.50;13.80;;;;;;4958778;28;19926;-89
2022/04/19 12:54:28;;;;;;;;;;;29.50;13.90;;;;;;4939976;29;19961;-89
2022/04/19 12:57:01;;;;;;;;;;;29.30;13.70;;;;;;4940263;29;19929;-89
2022/04/19 12:59:27;;;;;;;;;;;29.10;13.80;;;;;;4940310;29;19954;-90
2022/04/19 13:01:52;;;;;;;;;;;29.00;14.20;;;;;;4940001;29;19974;-89
2022/04/19 13:04:18;;;;;;;;;;;28.90;14.30;;;;;;4941361;29;20359;-89
2022/04/19 13:12:19;;;;;;;;;;;28.60;14.70;;;;;;4956435;29;20381;-86
2022/04/19 13:14:50;;;;;;;;;;;28.30;14.80;;;;;;4955747;29;20378;-86
2022/04/19 13:17:17;;;;;;;;;;;28.10;15.10;;;;;;4938491;29;19918;-86
2022/04/19 13:19:43;;;;;;;;;;;28.10;15.30;;;;;;4938782;29;19949;-85
2022/04/19 13:22:09;;;;;;;;;;;28.30;15.40;;;;;;4955641;28;19965;-85
2022/04/19 13:24:36;;;;;;;;;;;28.10;15.50;;;;;;4938442;29;20531;-86
2022/04/19 13:27:03;;;;;;;;;;;27.80;15.90;;;;;;4938165;29;20005;-87
2022/04/19 13:29:29;;;;;;;;;;;27.70;16.00;;;;;;4937762;29;20442;-86
2022/04/19 13:31:55;;;;;;;;;;;27.50;16.20;;;;;;4937504;29;19986;-86
2022/04/19 13:34:21;;;;;;;;;;;27.50;16.40;;;;;;4955065;28;19974;-86
2022/04/19 13:36:51;;;;;;;;;;;27.60;16.30;;;;;;4954965;29;19930;-85
2022/04/19 13:39:16;;;;;;;;;;;27.50;16.30;;;;;;4937694;29;19915;-86
2022/04/19 13:41:42;;;;;;;;;;;27.30;16.40;;;;;;4975496;28;19922;-87
2022/04/19 13:44:13;;;;;;;;;;;27.20;16.40;;;;;;4974032;28;19921;-87
2022/04/19 13:46:42;;;;;;;;;;;27.00;16.20;;;;;;4956694;28;19953;-87
2022/04/19 13:49:08;;;;;;;;;;;26.80;16.50;;;;;;4974261;28;19914;-85
2022/04/19 13:51:35;;;;;;;;;;;26.40;16.80;;;;;;4972088;28;19922;-86
2022/04/19 13:54:01;;;;;;;;;;;26.00;17.10;;;;;;4940732;28;19965;-87
2022/04/19 13:56:27;;;;;;;;;;;25.70;17.60;;;;;;4974437;28;19997;-87
2022/04/19 13:58:54;;;;;;;;;;;25.10;17.90;;;;;;4974539;28;19947;-86
2022/04/19 14:01:19;;;;;;;;;;;24.50;18.50;;;;;;4973388;28;19930;-87
2022/04/19 14:03:45;;;;;;;;;;;24.10;18.90;;;;;;4954627;29;19919;-86
2022/04/19 14:06:11;;;;;;;;;;;23.80;19.30;;;;;;4938170;29;19929;-88
2022/04/19 14:08:37;;;;;;;;;;;23.50;19.70;;;;;;4938593;29;19914;-85
2022/04/19 14:11:02;;;;;;;;;;;23.20;20.20;;;;;;4937067;29;19918;-86
2022/04/19 14:13:28;;;;;;;;;;;22.90;20.50;;;;;;4954513;29;19969;-87
2022/04/19 14:15:54;;;;;;;;;;;22.80;20.60;;;;;;4954612;29;19918;-86
2022/04/19 14:18:19;;;;;;;;;;;22.50;20.60;;;;;;4955865;29;20379;-87
2022/04/19 14:20:48;;;;;;;;;;;22.30;20.60;;;;;;4937333;28;19918;-87
2022/04/19 14:23:15;;;;;;;;;;;22.00;20.80;;;;;;4956258;29;20006;-86
2022/04/19 14:25:41;;;;;;;;;;;21.90;21.10;;;;;;4955045;28;19918;-86
2022/04/19 14:28:06;;;;;;;;;;;21.80;21.80;;;;;;4936686;29;19915;-86
2022/04/19 14:33:16;;;;;;;;;;;21.50;21.80;;;;;;4953652;29;19929;-88
2022/04/19 14:35:42;;;;;;;;;;;21.50;21.80;;;;;;4937181;29;20363;-86
2022/04/19 14:38:08;;;;;;;;;;;21.40;21.90;;;;;;4954991;29;19921;-89
2022/04/19 14:40:33;;;;;;;;;;;21.40;22.20;;;;;;4954177;29;19919;-86
2022/04/19 14:42:59;;;;;;;;;;;21.40;22.40;;;;;;4952420;29;19969;-87
2022/04/19 14:45:24;;;;;;;;;;;21.40;22.40;;;;;;4954258;29;20446;-86
2022/04/19 14:47:50;;;;;;;;;;;21.40;21.90;;;;;;4954227;29;19930;-85
2022/04/19 14:50:15;;;;;;;;;;;21.40;21.90;;;;;;4960057;28;19918;-87
2022/04/19 14:52:41;;;;;;;;;;;21.40;21.70;;;;;;4971371;28;20398;-86
2022/04/19 14:55:06;;;;;;;;;;;21.40;21.70;;;;;;4955748;28;19926;-86
2022/04/19 14:57:32;;;;;;;;;;;21.40;21.90;;;;;;4955230;28;20377;-86
2022/04/19 14:59:57;;;;;;;;;;;21.40;21.90;;;;;;4954110;28;19914;-86
2022/04/19 15:02:23;;;;;;;;;;;21.40;21.60;;;;;;4936850;29;19919;-87
2022/04/19 15:04:48;;;;;;;;;;;21.40;21.70;;;;;;4953857;29;20279;-86
2022/04/19 15:07:14;;;;;;;;;;;21.30;21.70;;;;;;4953688;28;19925;-86
2022/04/19 15:09:39;;;;;;;;;;;21.40;21.60;;;;;;4954971;29;19925;-85
2022/04/19 15:12:06;;;;;;;;;;;21.30;21.70;;;;;;4953904;28;19914;-86
2022/04/19 15:14:32;;;;;;;;;;;21.30;21.80;;;;;;4936056;29;19926;-85
2022/04/19 15:16:58;;;;;;;;;;;21.30;22.10;;;;;;4953673;28;20383;-86
2022/04/19 15:19:23;;;;;;;;;;;21.30;21.80;;;;;;4936015;29;19914;-85